Metropolis, Nevada
Current Conditions -  °F | °C
As of 12:15 AM on Monday 24 Nov 2014 (Local Time) from KENV Reporting Station
Clear Clear  
Wind Chill: 30°   Ceiling: Unl
Heat Index: 30°   Visibility: 10mi
Dew Point: 19°   Wind: 3mph
Humidity: 64%   Direction: 180°S
Pressure: 30.21"   Gusts: NA
Location:  41.0114°N, 114.57°W
Report Text: KENV 240815Z AUTO 18003KT 10SM CLR M01/M07 A3021 RMK AO1
Loading
Personal Weather Stations






























Interactive Weather Map New forecast layout! Learn more

10-Day Weather Forecast

Advertisements
Track Severe Weather on mobile